Time;durP1;ratioP1;P1;durP2;ratioP2;P2;SDS_P1;SDS_P2;PMS_P1;PMS_P2;Temp;Humidity;BMP_temperature;BMP_pressure;BME280_temperature;BME280_humidity;BME280_pressure;Samples;Min_cycle;Max_cycle;Signal;HPM_P1;HPM_P2
2022/12/19 00:00:09;;;;;;;;;;;26.50;23.30;;;;;;5095669;28;19920;-67
2022/12/19 00:02:34;;;;;;;;;;;26.50;23.40;;;;;;5095533;28;19920;-67
2022/12/19 00:05:00;;;;;;;;;;;26.50;23.40;;;;;;5095610;28;19919;-67
2022/12/19 00:07:26;;;;;;;;;;;26.50;23.40;;;;;;5113811;28;19927;-66
2022/12/19 00:09:51;;;;;;;;;;;26.50;23.40;;;;;;5095349;28;20382;-67
2022/12/19 00:12:17;;;;;;;;;;;26.50;23.40;;;;;;5094435;28;20069;-66
2022/12/19 00:14:42;;;;;;;;;;;26.50;23.50;;;;;;5095301;28;19969;-67
2022/12/19 00:17:08;;;;;;;;;;;26.40;23.50;;;;;;5095267;28;19926;-70
2022/12/19 00:19:33;;;;;;;;;;;26.40;23.50;;;;;;5095300;28;19920;-66
2022/12/19 00:21:59;;;;;;;;;;;26.40;23.50;;;;;;5113554;28;19924;-69
2022/12/19 00:24:24;;;;;;;;;;;26.40;23.50;;;;;;5095116;28;19920;-69
2022/12/19 00:26:50;;;;;;;;;;;26.40;23.50;;;;;;5095407;28;19926;-70
2022/12/19 00:29:15;;;;;;;;;;;26.40;23.50;;;;;;5095359;28;20288;-66
2022/12/19 00:31:41;;;;;;;;;;;26.40;23.50;;;;;;5095319;28;19920;-67
2022/12/19 00:34:07;;;;;;;;;;;26.40;23.50;;;;;;5113303;28;20382;-67
2022/12/19 00:36:33;;;;;;;;;;;26.40;23.50;;;;;;5095399;28;19919;-66
2022/12/19 00:39:00;;;;;;;;;;;26.40;23.50;;;;;;5095166;28;20432;-67
2022/12/19 00:41:28;;;;;;;;;;;26.40;23.50;;;;;;5094845;28;19923;-66
2022/12/19 00:43:54;;;;;;;;;;;26.50;23.60;;;;;;5094923;28;19927;-69
2022/12/19 00:46:20;;;;;;;;;;;26.40;23.50;;;;;;5094562;28;20210;-70
2022/12/19 00:48:45;;;;;;;;;;;26.40;23.60;;;;;;5094817;28;19920;-66
2022/12/19 00:51:13;;;;;;;;;;;26.40;23.60;;;;;;5094914;28;19993;-66
2022/12/19 00:53:38;;;;;;;;;;;26.40;23.60;;;;;;5094681;28;19945;-66
2022/12/19 00:56:05;;;;;;;;;;;26.40;23.60;;;;;;5112847;28;19920;-66
2022/12/19 00:58:31;;;;;;;;;;;26.40;23.60;;;;;;5112852;28;19926;-66
2022/12/19 01:00:57;;;;;;;;;;;26.40;23.60;;;;;;5112843;28;19923;-66
2022/12/19 01:03:23;;;;;;;;;;;26.50;23.70;;;;;;5094935;28;19924;-66
2022/12/19 01:05:50;;;;;;;;;;;26.40;23.60;;;;;;5094859;28;19959;-66
2022/12/19 01:08:15;;;;;;;;;;;26.40;23.70;;;;;;5112941;28;19988;-67
2022/12/19 01:10:48;;;;;;;;;;;26.50;23.70;;;;;;5094484;28;19920;-66
2022/12/19 01:13:15;;;;;;;;;;;26.40;23.70;;;;;;5090863;28;19928;-66
2022/12/19 01:15:40;;;;;;;;;;;26.40;23.70;;;;;;5092429;28;20346;-66
2022/12/19 01:18:09;;;;;;;;;;;26.40;23.70;;;;;;5091402;28;20023;-65
2022/12/19 01:20:38;;;;;;;;;;;26.40;23.70;;;;;;5091073;28;19920;-66
2022/12/19 01:23:04;;;;;;;;;;;26.40;23.70;;;;;;5091427;28;19920;-66
2022/12/19 01:25:31;;;;;;;;;;;26.40;23.80;;;;;;5090595;28;19978;-66
2022/12/19 01:27:56;;;;;;;;;;;26.40;23.80;;;;;;5091133;28;20010;-66
2022/12/19 01:30:22;;;;;;;;;;;26.40;23.80;;;;;;5091269;28;20444;-66
2022/12/19 01:32:47;;;;;;;;;;;26.40;23.80;;;;;;5091072;28;19925;-66
2022/12/19 01:35:13;;;;;;;;;;;26.40;23.80;;;;;;5091050;28;20406;-66
2022/12/19 01:37:38;;;;;;;;;;;26.40;23.70;;;;;;5092159;28;19927;-66
2022/12/19 01:40:04;;;;;;;;;;;26.40;23.80;;;;;;5091406;28;20397;-66
2022/12/19 01:42:33;;;;;;;;;;;26.40;23.80;;;;;;5090951;28;19920;-66
2022/12/19 01:50:33;;;;;;;;;;;26.30;23.80;;;;;;5110270;27;19919;-65
2022/12/19 01:52:59;;;;;;;;;;;26.30;23.80;;;;;;5109176;28;19920;-66
2022/12/19 01:55:25;;;;;;;;;;;26.30;23.90;;;;;;5109280;28;19920;-70
2022/12/19 01:57:51;;;;;;;;;;;26.30;23.80;;;;;;5109059;28;20411;-66
2022/12/19 02:00:17;;;;;;;;;;;26.30;23.90;;;;;;5108869;28;19920;-65
2022/12/19 02:02:45;;;;;;;;;;;26.30;23.80;;;;;;5108672;28;19920;-65
2022/12/19 02:05:10;;;;;;;;;;;26.30;23.90;;;;;;5109041;28;20368;-65
2022/12/19 02:07:37;;;;;;;;;;;26.30;23.90;;;;;;5143023;27;19920;-65
2022/12/19 02:10:03;;;;;;;;;;;26.30;23.90;;;;;;5108612;28;19924;-65
2022/12/19 02:12:31;;;;;;;;;;;26.30;24.00;;;;;;5108599;28;19968;-65
2022/12/19 02:14:57;;;;;;;;;;;26.30;24.00;;;;;;5109951;28;19927;-65
2022/12/19 02:17:30;;;;;;;;;;;26.30;24.00;;;;;;5108798;28;20295;-65
2022/12/19 02:20:16;;;;;;;;;;;26.40;24.00;;;;;;5109740;28;19926;-65
2022/12/19 02:25:42;;;;;;;;;;;26.40;24.10;;;;;;5089956;28;19912;-65
2022/12/19 02:31:15;;;;;;;;;;;26.30;24.00;;;;;;5110375;27;19912;-65
2022/12/19 02:33:43;;;;;;;;;;;26.40;24.10;;;;;;5109020;28;19963;-68
2022/12/19 02:36:14;;;;;;;;;;;26.30;24.00;;;;;;5108987;28;20387;-65
2022/12/19 02:41:21;;;;;;;;;;;26.40;24.20;;;;;;5089962;28;20276;-65
2022/12/19 02:43:49;;;;;;;;;;;26.40;24.10;;;;;;5088587;28;19963;-64
2022/12/19 02:46:15;;;;;;;;;;;26.40;24.20;;;;;;5088590;28;19962;-64
2022/12/19 02:48:41;;;;;;;;;;;26.40;24.20;;;;;;5088797;28;19951;-65
2022/12/19 02:51:07;;;;;;;;;;;26.30;24.10;;;;;;5089725;28;19959;-65
2022/12/19 02:53:32;;;;;;;;;;;26.30;24.20;;;;;;5088625;28;20444;-65
2022/12/19 02:56:18;;;;;;;;;;;26.40;24.20;;;;;;5088738;28;19989;-64
2022/12/19 03:01:45;;;;;;;;;;;26.40;24.20;;;;;;5127963;27;1855065;-64
2022/12/19 03:06:54;;;;;;;;;;;26.40;24.30;;;;;;5089990;28;19912;-65
2022/12/19 03:09:39;;;;;;;;;;;26.40;24.20;;;;;;5088604;28;19921;-64
2022/12/19 03:12:07;;;;;;;;;;;26.50;24.20;;;;;;5089804;28;20025;-64
2022/12/19 03:14:34;;;;;;;;;;;26.60;24.20;;;;;;5088005;28;19920;-64
2022/12/19 03:17:02;;;;;;;;;;;26.70;24.10;;;;;;5088412;28;19973;-64
2022/12/19 03:19:27;;;;;;;;;;;26.80;24.10;;;;;;5088434;28;19927;-64
2022/12/19 03:21:53;;;;;;;;;;;26.80;24.10;;;;;;5088460;28;19920;-65
2022/12/19 03:24:18;;;;;;;;;;;26.90;24.10;;;;;;5088609;28;19925;-64
2022/12/19 03:26:47;;;;;;;;;;;26.90;24.00;;;;;;5088240;28;19928;-64
2022/12/19 03:29:17;;;;;;;;;;;26.90;24.00;;;;;;5089442;28;19928;-64
2022/12/19 03:31:44;;;;;;;;;;;26.90;24.00;;;;;;5088562;28;20388;-64
2022/12/19 03:34:29;;;;;;;;;;;26.90;24.00;;;;;;5088508;28;19920;-64
2022/12/19 03:36:57;;;;;;;;;;;26.90;24.10;;;;;;5087971;28;19999;-64
2022/12/19 03:39:24;;;;;;;;;;;26.80;24.10;;;;;;5088031;28;19920;-64
2022/12/19 03:44:36;;;;;;;;;;;26.80;24.20;;;;;;5087937;28;19965;-65
2022/12/19 03:47:07;;;;;;;;;;;26.70;24.20;;;;;;5089319;28;19920;-64
2022/12/19 03:49:32;;;;;;;;;;;26.60;24.20;;;;;;5087875;28;20011;-65
2022/12/19 03:52:02;;;;;;;;;;;26.60;24.30;;;;;;5089071;28;20019;-64
2022/12/19 03:54:31;;;;;;;;;;;26.50;24.30;;;;;;5089066;28;19928;-64
2022/12/19 03:57:14;;;;;;;;;;;26.50;24.40;;;;;;5087651;28;19927;-64
2022/12/19 03:59:43;;;;;;;;;;;26.40;24.40;;;;;;5088948;28;19920;-65
2022/12/19 04:02:10;;;;;;;;;;;26.30;24.40;;;;;;5087869;28;19956;-64
2022/12/19 04:04:42;;;;;;;;;;;26.40;24.50;;;;;;5090210;28;19927;-64
2022/12/19 04:07:09;;;;;;;;;;;26.30;24.50;;;;;;5090725;28;19924;-64
2022/12/19 04:09:35;;;;;;;;;;;26.40;24.50;;;;;;5090882;28;20006;-64
2022/12/19 04:12:03;;;;;;;;;;;26.40;24.50;;;;;;5090714;28;19920;-64
2022/12/19 04:14:30;;;;;;;;;;;26.40;24.50;;;;;;5091066;28;20418;-64
2022/12/19 04:17:00;;;;;;;;;;;26.40;24.40;;;;;;5084188;28;19928;-64
2022/12/19 04:19:30;;;;;;;;;;;26.50;24.50;;;;;;5095331;28;19989;-64
2022/12/19 04:22:00;;;;;;;;;;;26.60;24.50;;;;;;5095281;28;19924;-64
2022/12/19 04:24:29;;;;;;;;;;;26.70;24.40;;;;;;5077031;28;19926;-64
2022/12/19 04:26:56;;;;;;;;;;;26.70;24.40;;;;;;5077270;28;19969;-64
2022/12/19 04:29:22;;;;;;;;;;;26.70;24.40;;;;;;5095137;28;19920;-64
2022/12/19 04:31:48;;;;;;;;;;;26.80;24.30;;;;;;5095159;28;20392;-64
2022/12/19 04:34:15;;;;;;;;;;;26.90;24.30;;;;;;5076911;28;20066;-69
2022/12/19 04:36:41;;;;;;;;;;;26.80;24.30;;;;;;5094998;28;19924;-69
2022/12/19 04:39:06;;;;;;;;;;;26.90;24.30;;;;;;5076781;28;19920;-64
2022/12/19 04:41:32;;;;;;;;;;;26.90;24.30;;;;;;5094838;28;20013;-69
2022/12/19 04:43:58;;;;;;;;;;;26.90;24.30;;;;;;5077085;28;20323;-64
2022/12/19 04:46:24;;;;;;;;;;;26.90;24.40;;;;;;5076653;28;19927;-64
2022/12/19 04:48:49;;;;;;;;;;;26.80;24.40;;;;;;5076615;28;20366;-64
2022/12/19 04:51:15;;;;;;;;;;;26.80;24.40;;;;;;5094617;28;19926;-64
2022/12/19 04:53:40;;;;;;;;;;;26.80;24.50;;;;;;5076863;28;19920;-64
2022/12/19 04:56:06;;;;;;;;;;;26.70;24.50;;;;;;5076578;28;20425;-64
2022/12/19 04:58:32;;;;;;;;;;;26.70;24.50;;;;;;5094616;28;19955;-64
2022/12/19 05:01:00;;;;;;;;;;;26.70;24.60;;;;;;5094506;28;19974;-65
2022/12/19 05:03:25;;;;;;;;;;;26.70;24.60;;;;;;5076563;28;19920;-64
2022/12/19 05:05:51;;;;;;;;;;;26.60;24.60;;;;;;5072633;28;19924;-64
2022/12/19 05:08:16;;;;;;;;;;;26.50;24.60;;;;;;5072831;28;20361;-64
2022/12/19 05:10:42;;;;;;;;;;;26.50;24.70;;;;;;5073196;28;19920;-64
2022/12/19 05:13:08;;;;;;;;;;;26.40;24.70;;;;;;5074039;28;19921;-64
2022/12/19 05:15:33;;;;;;;;;;;26.50;24.80;;;;;;5073121;28;20365;-64
2022/12/19 05:17:59;;;;;;;;;;;26.50;24.80;;;;;;5074027;28;19942;-64
2022/12/19 05:20:24;;;;;;;;;;;26.40;24.80;;;;;;5073952;28;19936;-64
2022/12/19 05:22:50;;;;;;;;;;;26.50;24.80;;;;;;5072850;28;19932;-64
2022/12/19 05:25:15;;;;;;;;;;;26.50;24.80;;;;;;5073986;28;19925;-64
2022/12/19 05:27:41;;;;;;;;;;;26.50;24.80;;;;;;5073749;28;20046;-64
2022/12/19 05:30:07;;;;;;;;;;;26.60;24.80;;;;;;5072035;28;19920;-65
2022/12/19 05:32:33;;;;;;;;;;;26.60;24.80;;;;;;5073795;28;19924;-65
2022/12/19 05:34:59;;;;;;;;;;;26.60;24.80;;;;;;5072316;28;19921;-65
2022/12/19 05:37:24;;;;;;;;;;;26.50;24.80;;;;;;5073548;28;19925;-71
2022/12/19 05:39:50;;;;;;;;;;;26.60;24.90;;;;;;5071918;28;19974;-65
2022/12/19 05:42:15;;;;;;;;;;;26.60;24.80;;;;;;5072259;28;19975;-65
2022/12/19 05:44:41;;;;;;;;;;;26.60;24.80;;;;;;5073327;28;19989;-71
2022/12/19 05:47:06;;;;;;;;;;;26.60;24.80;;;;;;5072494;28;20384;-65
2022/12/19 05:49:32;;;;;;;;;;;26.70;24.90;;;;;;5073400;28;19921;-65
2022/12/19 05:51:57;;;;;;;;;;;26.70;24.80;;;;;;5072308;28;20344;-65
2022/12/19 05:54:23;;;;;;;;;;;26.80;24.80;;;;;;5071959;28;20015;-65
2022/12/19 05:56:48;;;;;;;;;;;26.80;24.80;;;;;;5071958;28;20016;-65
2022/12/19 05:59:14;;;;;;;;;;;26.80;24.80;;;;;;5072053;28;20003;-65
2022/12/19 06:01:39;;;;;;;;;;;26.80;24.80;;;;;;5072183;28;19926;-65
2022/12/19 06:04:06;;;;;;;;;;;26.80;24.90;;;;;;5071788;28;20333;-72
2022/12/19 06:06:32;;;;;;;;;;;26.80;24.90;;;;;;5088457;28;19928;-65
2022/12/19 06:08:58;;;;;;;;;;;26.80;24.90;;;;;;5093186;28;20367;-65
2022/12/19 06:11:25;;;;;;;;;;;26.80;24.90;;;;;;5075242;28;20279;-65
2022/12/19 06:13:50;;;;;;;;;;;26.70;24.90;;;;;;5093138;28;19927;-65
2022/12/19 06:16:17;;;;;;;;;;;26.80;25.00;;;;;;5074878;28;20417;-65
2022/12/19 06:18:43;;;;;;;;;;;26.80;25.00;;;;;;5074961;28;19927;-64
2022/12/19 06:21:10;;;;;;;;;;;26.70;24.90;;;;;;5092978;28;19928;-65
2022/12/19 06:23:36;;;;;;;;;;;26.70;25.00;;;;;;5074856;28;19924;-65
2022/12/19 06:26:03;;;;;;;;;;;26.70;25.00;;;;;;5074919;28;19993;-72
2022/12/19 06:28:29;;;;;;;;;;;26.70;25.00;;;;;;5091621;28;19953;-65
2022/12/19 06:30:55;;;;;;;;;;;26.70;25.20;;;;;;5073275;28;19924;-63
2022/12/19 06:33:20;;;;;;;;;;;26.30;25.40;;;;;;5053230;28;20007;-63
2022/12/19 06:35:46;;;;;;;;;;;25.50;26.00;;;;;;5071026;28;20024;-64
2022/12/19 06:38:11;;;;;;;;;;;24.90;26.60;;;;;;5066625;28;19966;-65
2022/12/19 06:43:27;;;;;;;;;;;24.00;27.90;;;;;;5073153;28;19959;-64
2022/12/19 06:45:52;;;;;;;;;;;23.50;28.30;;;;;;5091090;28;19974;-64
2022/12/19 06:48:18;;;;;;;;;;;23.20;28.80;;;;;;5072262;28;19923;-64
2022/12/19 06:50:43;;;;;;;;;;;22.80;29.10;;;;;;5090379;28;19973;-64
2022/12/19 06:53:09;;;;;;;;;;;22.60;29.60;;;;;;5073719;28;19924;-64
2022/12/19 06:55:35;;;;;;;;;;;22.30;29.90;;;;;;5071043;28;19970;-64
2022/12/19 06:58:01;;;;;;;;;;;22.10;30.20;;;;;;5072007;28;19950;-64
2022/12/19 07:00:27;;;;;;;;;;;21.90;30.60;;;;;;5071831;28;19920;-64
2022/12/19 07:02:53;;;;;;;;;;;21.80;31.00;;;;;;5090886;28;19926;-64
2022/12/19 07:05:18;;;;;;;;;;;21.60;31.30;;;;;;5088031;28;20398;-65
2022/12/19 07:07:44;;;;;;;;;;;21.50;31.50;;;;;;5070198;28;19935;-64
2022/12/19 07:10:09;;;;;;;;;;;21.40;31.90;;;;;;5065765;28;19927;-64
2022/12/19 07:12:35;;;;;;;;;;;21.30;32.10;;;;;;5088021;28;19920;-65
2022/12/19 07:15:01;;;;;;;;;;;21.10;32.40;;;;;;5067640;28;19921;-65
2022/12/19 07:17:27;;;;;;;;;;;21.00;32.60;;;;;;5085096;28;19927;-65
2022/12/19 07:19:54;;;;;;;;;;;20.90;33.30;;;;;;5081579;28;20535;-65
2022/12/19 07:22:19;;;;;;;;;;;20.80;33.10;;;;;;5053023;28;20054;-65
2022/12/19 07:24:45;;;;;;;;;;;20.80;33.40;;;;;;5082769;28;20015;-65
2022/12/19 07:27:10;;;;;;;;;;;20.70;33.50;;;;;;5085303;28;19920;-64
2022/12/19 07:29:36;;;;;;;;;;;20.60;33.70;;;;;;5050536;28;20384;-64
2022/12/19 07:32:01;;;;;;;;;;;20.60;33.90;;;;;;5051490;28;19931;-64
2022/12/19 07:34:27;;;;;;;;;;;20.50;34.10;;;;;;5055851;28;19935;-64
2022/12/19 07:36:53;;;;;;;;;;;20.40;34.20;;;;;;5070987;28;19974;-66
2022/12/19 07:39:18;;;;;;;;;;;20.40;34.50;;;;;;5071815;28;19921;-66
2022/12/19 07:41:44;;;;;;;;;;;20.30;35.60;;;;;;5071313;28;19985;-66
2022/12/19 07:44:12;;;;;;;;;;;20.30;35.20;;;;;;5056101;28;20468;-66
2022/12/19 07:46:37;;;;;;;;;;;20.20;35.70;;;;;;5070955;28;19928;-66
2022/12/19 07:49:03;;;;;;;;;;;20.10;36.10;;;;;;5068059;28;19928;-67
2022/12/19 07:51:28;;;;;;;;;;;20.10;36.50;;;;;;5065589;28;19920;-67
2022/12/19 07:53:54;;;;;;;;;;;20.10;36.70;;;;;;5056722;28;19924;-66
2022/12/19 07:56:19;;;;;;;;;;;20.00;36.90;;;;;;5070655;28;19923;-66
2022/12/19 07:58:45;;;;;;;;;;;20.00;37.80;;;;;;5070408;28;19925;-67
2022/12/19 08:01:11;;;;;;;;;;;20.00;37.20;;;;;;5054257;28;19920;-67
2022/12/19 08:03:37;;;;;;;;;;;20.00;37.30;;;;;;5074261;28;20435;-67
2022/12/19 08:06:03;;;;;;;;;;;20.00;37.20;;;;;;5073065;28;20023;-67
2022/12/19 08:08:29;;;;;;;;;;;20.00;37.10;;;;;;5072088;28;19924;-68
2022/12/19 08:10:55;;;;;;;;;;;20.00;37.10;;;;;;5069839;28;20542;-67
2022/12/19 08:13:21;;;;;;;;;;;20.10;37.20;;;;;;5070774;28;19925;-66
2022/12/19 08:15:47;;;;;;;;;;;20.00;37.20;;;;;;5065583;28;19978;-65
2022/12/19 08:18:12;;;;;;;;;;;20.00;37.30;;;;;;5055080;28;19934;-69
2022/12/19 08:20:38;;;;;;;;;;;20.00;37.50;;;;;;5059337;28;20775;-66
2022/12/19 08:23:03;;;;;;;;;;;20.00;37.70;;;;;;5071771;28;21319;-66
2022/12/19 08:25:29;;;;;;;;;;;20.00;37.80;;;;;;5052797;28;19935;-67
2022/12/19 08:27:54;;;;;;;;;;;20.00;37.80;;;;;;5074986;28;19928;-66
2022/12/19 08:30:20;;;;;;;;;;;20.00;37.80;;;;;;5074577;28;19928;-67
2022/12/19 08:32:45;;;;;;;;;;;19.90;37.90;;;;;;5073494;28;20773;-65
2022/12/19 08:35:11;;;;;;;;;;;19.90;38.10;;;;;;5059485;28;19962;-68
2022/12/19 08:37:36;;;;;;;;;;;19.90;38.30;;;;;;5073224;28;20019;-64
2022/12/19 08:40:02;;;;;;;;;;;19.90;38.40;;;;;;5062391;28;19963;-64
2022/12/19 08:42:28;;;;;;;;;;;19.90;38.60;;;;;;5073464;28;19924;-64
2022/12/19 08:44:53;;;;;;;;;;;19.80;38.90;;;;;;5075797;28;19982;-65
2022/12/19 08:47:19;;;;;;;;;;;19.80;39.20;;;;;;5059144;28;19960;-68
2022/12/19 08:49:44;;;;;;;;;;;19.70;39.40;;;;;;5055574;28;20336;-66
2022/12/19 08:52:10;;;;;;;;;;;19.80;39.60;;;;;;5074542;28;19921;-66
2022/12/19 08:54:35;;;;;;;;;;;19.70;39.70;;;;;;5056714;28;20003;-66
2022/12/19 08:57:01;;;;;;;;;;;19.70;39.70;;;;;;5073391;28;19928;-66
2022/12/19 08:59:26;;;;;;;;;;;19.60;39.70;;;;;;5075026;28;19939;-66
2022/12/19 09:01:52;;;;;;;;;;;19.60;39.80;;;;;;5058473;28;19925;-66
2022/12/19 09:04:17;;;;;;;;;;;19.60;39.90;;;;;;5073371;28;19931;-66
2022/12/19 09:06:43;;;;;;;;;;;19.60;40.10;;;;;;5058829;28;19971;-67
2022/12/19 09:09:08;;;;;;;;;;;19.60;40.10;;;;;;5062323;28;20608;-67
2022/12/19 09:11:34;;;;;;;;;;;19.60;40.10;;;;;;5057252;28;19932;-67
2022/12/19 09:13:59;;;;;;;;;;;19.50;40.20;;;;;;5057168;28;19986;-68
2022/12/19 09:16:26;;;;;;;;;;;19.50;40.30;;;;;;5059509;28;19919;-67
2022/12/19 09:18:52;;;;;;;;;;;19.50;40.50;;;;;;5076094;28;20046;-68
2022/12/19 09:21:19;;;;;;;;;;;19.50;40.90;;;;;;5071876;28;20337;-67
2022/12/19 09:23:48;;;;;;;;;;;19.50;41.10;;;;;;5065379;28;20019;-73
2022/12/19 09:26:14;;;;;;;;;;;19.40;41.00;;;;;;5072506;28;19939;-67
2022/12/19 09:28:40;;;;;;;;;;;19.30;40.90;;;;;;5061395;28;19920;-67
2022/12/19 09:31:07;;;;;;;;;;;19.30;40.90;;;;;;5073763;28;20510;-67
2022/12/19 09:33:34;;;;;;;;;;;19.30;40.90;;;;;;5058855;28;19924;-67
2022/12/19 09:36:00;;;;;;;;;;;19.20;41.00;;;;;;5060814;28;19980;-68
2022/12/19 09:38:26;;;;;;;;;;;19.20;41.10;;;;;;5076241;28;19955;-67
2022/12/19 09:46:15;;;;;;;;;;;19.10;41.10;;;;;;5070841;28;19927;-65
2022/12/19 09:48:41;;;;;;;;;;;19.00;41.00;;;;;;5055035;28;19935;-65
2022/12/19 09:51:13;;;;;;;;;;;19.00;41.10;;;;;;5067816;28;19921;-65
2022/12/19 09:56:19;;;;;;;;;;;19.00;41.00;;;;;;5067672;27;19948;-65
2022/12/19 09:58:46;;;;;;;;;;;18.90;41.00;;;;;;5103936;27;20307;-65
2022/12/19 10:01:15;;;;;;;;;;;18.90;41.00;;;;;;5067759;28;19929;-65
2022/12/19 10:03:43;;;;;;;;;;;18.90;41.00;;;;;;5068338;28;19928;-65
2022/12/19 10:06:17;;;;;;;;;;;18.90;41.00;;;;;;5081826;28;19924;-65
2022/12/19 10:08:43;;;;;;;;;;;18.80;41.00;;;;;;5067084;28;19925;-66
2022/12/19 10:25:07;;;;;;;;;;;18.80;42.20;;;;;;5082416;27;19925;-68
2022/12/19 10:27:36;;;;;;;;;;;18.80;42.40;;;;;;5072067;28;20022;-69
2022/12/19 10:35:26;;;;;;;;;;;18.80;42.90;;;;;;5064414;27;19924;-66
2022/12/19 10:37:59;;;;;;;;;;;18.80;43.30;;;;;;5079363;28;20024;-67
2022/12/19 10:40:33;;;;;;;;;;;18.80;43.50;;;;;;5059139;28;19925;-68
2022/12/19 10:43:01;;;;;;;;;;;18.80;43.80;;;;;;5073171;28;20334;-69
2022/12/19 10:45:31;;;;;;;;;;;18.70;44.10;;;;;;5051650;28;19955;-69
2022/12/19 10:47:57;;;;;;;;;;;18.80;44.30;;;;;;5058455;28;19924;-68
2022/12/19 10:50:25;;;;;;;;;;;18.80;44.50;;;;;;5091684;28;20396;-68
2022/12/19 10:58:31;;;;;;;;;;;18.80;44.80;;;;;;5051061;28;19999;-67
2022/12/19 11:01:16;;;;;;;;;;;18.80;45.10;;;;;;5046839;28;19925;-68
2022/12/19 11:03:43;;;;;;;;;;;18.80;45.40;;;;;;5028312;28;20031;-68
2022/12/19 11:06:28;;;;;;;;;;;18.90;45.70;;;;;;5048031;28;19925;-74
2022/12/19 11:09:11;;;;;;;;;;;18.90;45.60;;;;;;5035334;28;20273;-67
2022/12/19 11:11:36;;;;;;;;;;;18.90;45.70;;;;;;5058641;28;19951;-68
2022/12/19 11:14:17;;;;;;;;;;;18.90;45.70;;;;;;5034909;28;19921;-68
2022/12/19 11:16:42;;;;;;;;;;;18.90;45.90;;;;;;5036667;28;20024;-70
2022/12/19 11:19:18;;;;;;;;;;;18.90;46.20;;;;;;5035589;28;20459;-69
2022/12/19 11:21:43;;;;;;;;;;;18.90;46.00;;;;;;5036711;28;20372;-66
2022/12/19 11:24:11;;;;;;;;;;;18.80;46.10;;;;;;5032387;28;19932;-69
2022/12/19 11:32:01;;;;;;;;;;;18.80;45.90;;;;;;5084934;27;19930;-67
2022/12/19 11:34:28;;;;;;;;;;;18.80;46.00;;;;;;5099537;28;19924;-69
2022/12/19 11:36:57;;;;;;;;;;;18.80;46.30;;;;;;5101578;28;20435;-76
2022/12/19 11:42:13;;;;;;;;;;;18.80;46.40;;;;;;5081552;27;20348;-67
2022/12/19 11:44:49;;;;;;;;;;;18.80;46.40;;;;;;5081062;28;19977;-69
2022/12/19 11:47:35;;;;;;;;;;;18.80;46.40;;;;;;5072278;28;19924;-67
2022/12/19 11:50:08;;;;;;;;;;;18.70;46.70;;;;;;5075371;28;19979;-69
2022/12/19 11:52:53;;;;;;;;;;;18.70;47.70;;;;;;5074495;28;19925;-66
2022/12/19 11:55:22;;;;;;;;;;;18.80;47.40;;;;;;5071431;28;19924;-68
2022/12/19 11:57:48;;;;;;;;;;;18.80;47.60;;;;;;5073728;28;19971;-67
2022/12/19 12:00:16;;;;;;;;;;;18.80;47.90;;;;;;5068672;28;20018;-68
2022/12/19 12:02:50;;;;;;;;;;;18.80;48.00;;;;;;5076195;28;20931;-67
2022/12/19 12:05:23;;;;;;;;;;;18.70;48.00;;;;;;5074998;28;19977;-67
2022/12/19 12:07:56;;;;;;;;;;;18.80;48.20;;;;;;5071880;28;20042;-70
2022/12/19 12:10:22;;;;;;;;;;;18.70;48.20;;;;;;5075753;28;19929;-74
2022/12/19 12:15:48;;;;;;;;;;;18.80;48.40;;;;;;5068336;27;20398;-69
2022/12/19 12:18:34;;;;;;;;;;;18.70;48.30;;;;;;5057272;28;19925;-66
2022/12/19 12:21:12;;;;;;;;;;;18.80;48.50;;;;;;5054413;28;19924;-66
2022/12/19 12:23:47;;;;;;;;;;;18.80;48.50;;;;;;5054975;28;20122;-67
2022/12/19 12:29:10;;;;;;;;;;;18.70;48.50;;;;;;5084166;27;20335;-66
2022/12/19 12:45:16;;;;;;;;;;;18.60;47.10;;;;;;5069716;28;20388;-66
2022/12/19 12:47:42;;;;;;;;;;;18.50;46.90;;;;;;5067818;28;19955;-68
2022/12/19 12:50:13;;;;;;;;;;;18.50;46.80;;;;;;5085376;28;19925;-66
2022/12/19 12:52:40;;;;;;;;;;;18.50;46.70;;;;;;5071112;28;19924;-65
2022/12/19 12:55:26;;;;;;;;;;;18.50;46.70;;;;;;5068008;28;20436;-69
2022/12/19 12:57:51;;;;;;;;;;;18.40;46.60;;;;;;5077582;28;20006;-65
2022/12/19 13:05:52;;;;;;;;;;;18.40;46.50;;;;;;5085803;27;19949;-65
2022/12/19 13:08:37;;;;;;;;;;;18.40;46.80;;;;;;5074767;28;19924;-66
2022/12/19 13:11:05;;;;;;;;;;;18.40;47.30;;;;;;5107560;27;19957;-67
2022/12/19 13:13:51;;;;;;;;;;;18.40;47.50;;;;;;5062095;28;20043;-67
2022/12/19 13:16:36;;;;;;;;;;;18.40;47.80;;;;;;5061841;28;19927;-68
2022/12/19 13:19:03;;;;;;;;;;;18.50;48.00;;;;;;5065946;28;19924;-67
2022/12/19 13:21:48;;;;;;;;;;;18.50;48.00;;;;;;5070302;28;20041;-66
2022/12/19 13:24:19;;;;;;;;;;;18.50;48.00;;;;;;5070813;28;19931;-68
2022/12/19 13:26:48;;;;;;;;;;;18.50;48.20;;;;;;5072040;28;19963;-68
2022/12/19 13:29:33;;;;;;;;;;;18.50;48.10;;;;;;5112195;27;20044;-66
2022/12/19 13:32:07;;;;;;;;;;;18.50;48.10;;;;;;5072841;28;19925;-74
2022/12/19 13:34:36;;;;;;;;;;;18.50;48.20;;;;;;5070729;28;19932;-68
2022/12/19 13:45:27;;;;;;;;;;;18.50;48.20;;;;;;5079136;28;20042;-67
2022/12/19 13:47:54;;;;;;;;;;;18.50;48.30;;;;;;5088671;28;20000;-64
2022/12/19 13:53:07;;;;;;;;;;;18.50;48.70;;;;;;5114971;27;19930;-66
2022/12/19 13:55:33;;;;;;;;;;;18.50;49.10;;;;;;5106964;28;19939;-68
2022/12/19 13:58:02;;;;;;;;;;;18.50;49.30;;;;;;5078805;28;19921;-69
2022/12/19 14:00:32;;;;;;;;;;;18.60;49.70;;;;;;5082879;28;19924;-69
2022/12/19 14:02:58;;;;;;;;;;;18.50;49.90;;;;;;5096482;28;19924;-70
2022/12/19 14:05:28;;;;;;;;;;;18.50;49.70;;;;;;5093225;28;19924;-69
2022/12/19 14:07:53;;;;;;;;;;;18.50;49.60;;;;;;5095723;28;19924;-69
2022/12/19 14:10:22;;;;;;;;;;;18.50;49.80;;;;;;5091376;28;20402;-69
2022/12/19 14:15:35;;;;;;;;;;;18.50;50.20;;;;;;5095324;28;20586;-70
2022/12/19 14:18:02;;;;;;;;;;;18.60;50.20;;;;;;5087644;28;20451;-72
2022/12/19 14:20:28;;;;;;;;;;;18.50;50.10;;;;;;5103685;28;20334;-69
2022/12/19 14:22:55;;;;;;;;;;;18.60;50.10;;;;;;5102838;28;20419;-70
2022/12/19 14:25:22;;;;;;;;;;;18.50;50.00;;;;;;5103760;28;19920;-70
2022/12/19 14:27:51;;;;;;;;;;;18.50;50.10;;;;;;5103818;28;19978;-68
2022/12/19 14:30:19;;;;;;;;;;;18.50;50.10;;;;;;5105251;28;19927;-66
2022/12/19 14:32:46;;;;;;;;;;;18.50;51.10;;;;;;5103510;28;19927;-66
2022/12/19 14:35:15;;;;;;;;;;;18.50;50.50;;;;;;5103653;28;20433;-65
2022/12/19 14:37:42;;;;;;;;;;;18.50;50.50;;;;;;5097332;28;19927;-67
2022/12/19 14:40:28;;;;;;;;;;;18.50;50.20;;;;;;5092410;28;20014;-68
2022/12/19 14:45:44;;;;;;;;;;;18.50;50.10;;;;;;5091875;28;19963;-68
2022/12/19 14:54:04;;;;;;;;;;;18.50;50.20;;;;;;5104226;27;19916;-67
2022/12/19 14:56:33;;;;;;;;;;;18.50;50.00;;;;;;5082726;28;19958;-67
2022/12/19 14:58:59;;;;;;;;;;;18.50;49.90;;;;;;5087036;28;19924;-65
2022/12/19 15:01:26;;;;;;;;;;;18.50;50.10;;;;;;5086511;28;19920;-65
2022/12/19 15:03:55;;;;;;;;;;;18.50;50.00;;;;;;5088611;28;19920;-65
2022/12/19 15:06:24;;;;;;;;;;;18.50;50.00;;;;;;5088068;28;19963;-68
2022/12/19 15:08:51;;;;;;;;;;;18.50;49.90;;;;;;5085850;28;19930;-68
2022/12/19 15:14:10;;;;;;;;;;;18.50;50.00;;;;;;5102900;28;20011;-68
2022/12/19 15:16:36;;;;;;;;;;;18.50;50.10;;;;;;5101293;28;20014;-69
2022/12/19 15:19:02;;;;;;;;;;;18.50;50.00;;;;;;5103442;28;19923;-68
2022/12/19 15:21:28;;;;;;;;;;;18.50;50.00;;;;;;5103702;28;19920;-70
2022/12/19 15:23:54;;;;;;;;;;;18.40;50.00;;;;;;5078391;28;19919;-69
2022/12/19 15:26:28;;;;;;;;;;;18.50;50.10;;;;;;5105906;28;20168;-69
2022/12/19 15:28:55;;;;;;;;;;;18.40;50.10;;;;;;5103354;28;19920;-69
2022/12/19 15:36:50;;;;;;;;;;;18.30;49.80;;;;;;5086421;28;19912;-68
2022/12/19 15:39:16;;;;;;;;;;;18.30;49.70;;;;;;5083010;28;20375;-67
2022/12/19 15:41:42;;;;;;;;;;;18.30;49.60;;;;;;5084561;28;19924;-67
2022/12/19 15:44:12;;;;;;;;;;;18.30;49.60;;;;;;5085836;28;19951;-67
2022/12/19 15:46:38;;;;;;;;;;;18.20;49.40;;;;;;5086330;28;19921;-72
2022/12/19 15:49:03;;;;;;;;;;;18.20;49.30;;;;;;5085328;28;19920;-68
2022/12/19 15:51:29;;;;;;;;;;;18.20;49.20;;;;;;5085408;28;19927;-68
2022/12/19 15:53:54;;;;;;;;;;;18.20;49.20;;;;;;5084077;28;19962;-68
2022/12/19 15:56:23;;;;;;;;;;;18.20;49.10;;;;;;5085440;28;19924;-67
2022/12/19 15:58:49;;;;;;;;;;;18.10;48.90;;;;;;5086182;28;20395;-67
2022/12/19 16:01:14;;;;;;;;;;;18.10;48.80;;;;;;5086378;28;19924;-67
2022/12/19 16:03:40;;;;;;;;;;;18.10;48.70;;;;;;5086369;28;20448;-67
2022/12/19 16:06:10;;;;;;;;;;;18.10;48.70;;;;;;5087706;28;19921;-67
2022/12/19 16:08:36;;;;;;;;;;;18.10;48.60;;;;;;5087407;28;19955;-68
2022/12/19 16:11:01;;;;;;;;;;;18.00;48.50;;;;;;5087300;28;19966;-67
2022/12/19 16:13:29;;;;;;;;;;;18.10;48.50;;;;;;5087026;28;19982;-67
2022/12/19 16:15:56;;;;;;;;;;;18.00;48.40;;;;;;5088314;28;20031;-67
2022/12/19 16:18:22;;;;;;;;;;;18.00;48.30;;;;;;5086723;28;19920;-67
2022/12/19 16:20:47;;;;;;;;;;;18.00;48.20;;;;;;5087882;28;19943;-67